Leadville, Colorado
Current Conditions -  °F | °C
As of 8:53 PM on Wednesday 26 Nov 2014 (Local Time) from KLXV Reporting Station
Clear Clear  
Wind Chill: 18°   Ceiling: Unl
Heat Index: 29°   Visibility: 10mi
Dew Point: 18°   Wind: 14mph
Humidity: 64%   Direction: 290°WNW
Pressure: 30.45"   Gusts: 20mph
Location:  39.25°N, 106.29°W
Report Text: KLXV 270353Z AUTO 29012G17KT 10SM CLR M02/M08 A3045 RMK AO2 SLP268 T10171078
Loading
Personal Weather Stations






























Interactive Weather Map New forecast layout! Learn more

10-Day Weather Forecast

Advertisements
Track Severe Weather on mobile